Shreveport Regional Airport
KSHV : now visible

Airfield :











YOU CAN JOIN US ON...

 
LOGIN :

Register | Disclaimer

   EN    FR    IT 

 









Legend :    VFR   Marginal VFR   IFR   Intensive IFR   Very Intensive IFR
Visi :
Ceiling :
>= 8 km
>= 3000ft
5 to 8 km
1000 to 3000 ft
1500m to 5 km
500 to 1000 ft
800 to 1500m
200 to 500 ft
< 800m
< 200 ft
Symbols :   Thunderstorms  Fog  Heavy snow  Heavy precipitations  Wind > 20 kt






- Airport Elevation : 258 ft
- IATA code : SHV


KSHV - Shreveport Regional

CURRENT METAR :
  • 200656Z 18013KT 10SM FEW028 FEW300 24/20 A2969 RMK AO2 SLP047 T02440200

EXPIRED METARs :
  • 200556Z 19013KT 10SM FEW300 26/20 A2970 RMK AO2 SLP053 T02560200 10317 20256 403440228 51005
  • 200456Z 19012G22KT 10SM CLR 26/19 A2970 RMK AO2 SLP053 T02610194

TAF KSHV
Valid from the 20 at 06:00 until the 21 at 06:00 UTC


200558Z 2006/2106 19010G15KT P6SM SCT025 BKN250
TEMPO 2010/2014 BKN025
FM201600 18013G19KT P6SM FEW030
FM210500 18015G21KT P6SM SCT025 SCT200
KZFW FIR / North America



MET'MAP, your aeronautical weather chart ! - Copyright ORBIFLY December 2007 - Disclaimer

ORBIFLY MET'MAP TEAM :

Programming & Development : Alexandra Zaïnal
Original concept : Baudouin d'Aumeries
Technical & hardware support : Manuel Goepfert
Assistance : Marc-Olivier Méhu

Contact : metmap@orbifly.com




SOURCES & CREDITS :

   NOAA       Earth
Advisory